Burnet's Hourly Summary for Friday, May 11, 2018
Hour Temp
(f)
RH
(%)
Solar Rad.
(MJ/m2)
Rainfall
(in)
Wind
(mph)
5/11/2018 12:00 AM 73 77 0 0 6.23
5/11/2018 1:00 AM 71 84 0 0 6.14
5/11/2018 2:00 AM 69 87 0 0 5.11
5/11/2018 3:00 AM 68 90 0 0 5.56
5/11/2018 4:00 AM 67 90 0 0 5.6
5/11/2018 5:00 AM 67 89 0 0 5.86
5/11/2018 6:00 AM 66 91 0 0 4.52
5/11/2018 7:00 AM 66 91 0.01 0 3.74
5/11/2018 8:00 AM 69 88 0.15 0 5.05
5/11/2018 9:00 AM 72 81 0.73 0 6.21
5/11/2018 10:00 AM 75 68 1.68 0 8.58
5/11/2018 11:00 AM 78 62 2.31 0 8.17
5/11/2018 12:00 PM 80 51 2.77 0 7.97
5/11/2018 1:00 PM 81 46 3.15 0 7.62
5/11/2018 2:00 PM 83 45 3.36 0 8.27
5/11/2018 3:00 PM 84 42 2.29 0 7.66
5/11/2018 4:00 PM 84 39 0.63 0 7.81
5/11/2018 5:00 PM 85 39 2.25 0 8
5/11/2018 6:00 PM 85 38 1.03 0 7.39
5/11/2018 7:00 PM 84 39 1.2 0 6.57
5/11/2018 8:00 PM 83 46 0.38 0 5.46
5/11/2018 9:00 PM 80 50 0.01 0 4.18
5/11/2018 10:00 PM 78 58 0 0 4.91
5/11/2018 11:00 PM 76 70 0 0 5.94
Data Summary 76 65 21.95 0.00 6.36